sensor_id;sensor_type;location;lat;lon;timestamp;P1;durP1;ratioP1;P2;durP2;ratioP2
2620;SDS011;1320;48.128;11.592;2022-08-05T00:01:16;9.80;;;6.50;;
2620;SDS011;1320;48.128;11.592;2022-08-05T00:03:44;12.33;;;6.47;;
2620;SDS011;1320;48.128;11.592;2022-08-05T00:06:11;13.40;;;8.93;;
2620;SDS011;1320;48.128;11.592;2022-08-05T00:08:38;11.37;;;7.33;;
2620;SDS011;1320;48.128;11.592;2022-08-05T00:11:06;10.17;;;6.47;;
2620;SDS011;1320;48.128;11.592;2022-08-05T00:13:37;11.33;;;8.33;;
2620;SDS011;1320;48.128;11.592;2022-08-05T00:16:04;11.77;;;7.47;;
2620;SDS011;1320;48.128;11.592;2022-08-05T00:18:35;11.07;;;6.90;;
2620;SDS011;1320;48.128;11.592;2022-08-05T00:21:02;10.47;;;6.93;;
2620;SDS011;1320;48.128;11.592;2022-08-05T00:23:28;12.83;;;6.67;;
2620;SDS011;1320;48.128;11.592;2022-08-05T00:25:54;12.63;;;7.00;;
2620;SDS011;1320;48.128;11.592;2022-08-05T00:28:20;12.00;;;7.20;;
2620;SDS011;1320;48.128;11.592;2022-08-05T00:30:46;11.13;;;6.87;;
2620;SDS011;1320;48.128;11.592;2022-08-05T00:33:11;12.30;;;7.50;;
2620;SDS011;1320;48.128;11.592;2022-08-05T00:35:37;11.77;;;6.60;;
2620;SDS011;1320;48.128;11.592;2022-08-05T00:38:03;11.43;;;8.30;;
2620;SDS011;1320;48.128;11.592;2022-08-05T00:40:28;12.67;;;6.40;;
2620;SDS011;1320;48.128;11.592;2022-08-05T00:42:58;12.17;;;6.50;;
2620;SDS011;1320;48.128;11.592;2022-08-05T00:45:25;10.83;;;6.67;;
2620;SDS011;1320;48.128;11.592;2022-08-05T00:47:51;11.27;;;7.53;;
2620;SDS011;1320;48.128;11.592;2022-08-05T00:50:16;11.63;;;6.73;;
2620;SDS011;1320;48.128;11.592;2022-08-05T00:52:42;11.03;;;7.27;;
2620;SDS011;1320;48.128;11.592;2022-08-05T00:55:08;11.40;;;7.30;;
2620;SDS011;1320;48.128;11.592;2022-08-05T00:57:33;12.70;;;8.03;;
2620;SDS011;1320;48.128;11.592;2022-08-05T00:59:59;10.33;;;6.63;;
2620;SDS011;1320;48.128;11.592;2022-08-05T01:02:25;12.60;;;7.80;;
2620;SDS011;1320;48.128;11.592;2022-08-05T01:04:50;11.10;;;6.13;;
2620;SDS011;1320;48.128;11.592;2022-08-05T01:07:16;10.50;;;6.73;;
2620;SDS011;1320;48.128;11.592;2022-08-05T01:09:41;14.03;;;8.03;;
2620;SDS011;1320;48.128;11.592;2022-08-05T01:12:08;12.03;;;6.90;;
2620;SDS011;1320;48.128;11.592;2022-08-05T01:17:22;13.30;;;7.30;;
2620;SDS011;1320;48.128;11.592;2022-08-05T01:20:33;12.10;;;6.80;;
2620;SDS011;1320;48.128;11.592;2022-08-05T01:23:00;10.47;;;6.47;;
2620;SDS011;1320;48.128;11.592;2022-08-05T01:28:44;12.50;;;7.03;;
2620;SDS011;1320;48.128;11.592;2022-08-05T01:31:18;11.90;;;7.37;;
2620;SDS011;1320;48.128;11.592;2022-08-05T01:36:40;9.87;;;6.53;;
2620;SDS011;1320;48.128;11.592;2022-08-05T01:39:10;13.70;;;7.70;;
2620;SDS011;1320;48.128;11.592;2022-08-05T01:41:39;10.20;;;6.67;;
2620;SDS011;1320;48.128;11.592;2022-08-05T01:44:07;11.63;;;7.53;;
2620;SDS011;1320;48.128;11.592;2022-08-05T01:46:34;11.93;;;7.23;;
2620;SDS011;1320;48.128;11.592;2022-08-05T01:49:00;12.93;;;8.60;;
2620;SDS011;1320;48.128;11.592;2022-08-05T01:51:30;13.10;;;7.53;;
2620;SDS011;1320;48.128;11.592;2022-08-05T01:53:58;12.17;;;7.77;;
2620;SDS011;1320;48.128;11.592;2022-08-05T01:56:29;11.57;;;6.93;;
2620;SDS011;1320;48.128;11.592;2022-08-05T01:58:59;11.13;;;7.60;;
2620;SDS011;1320;48.128;11.592;2022-08-05T02:01:29;11.53;;;6.77;;
2620;SDS011;1320;48.128;11.592;2022-08-05T02:03:57;10.10;;;6.73;;
2620;SDS011;1320;48.128;11.592;2022-08-05T02:06:25;11.60;;;7.80;;
2620;SDS011;1320;48.128;11.592;2022-08-05T02:08:51;10.10;;;6.87;;
2620;SDS011;1320;48.128;11.592;2022-08-05T02:11:17;10.60;;;7.20;;
2620;SDS011;1320;48.128;11.592;2022-08-05T02:13:55;12.07;;;6.90;;
2620;SDS011;1320;48.128;11.592;2022-08-05T02:16:30;10.37;;;6.10;;
2620;SDS011;1320;48.128;11.592;2022-08-05T02:21:50;11.30;;;6.57;;
2620;SDS011;1320;48.128;11.592;2022-08-05T02:24:34;11.30;;;6.27;;
2620;SDS011;1320;48.128;11.592;2022-08-05T02:27:03;12.00;;;6.47;;
2620;SDS011;1320;48.128;11.592;2022-08-05T02:29:32;11.20;;;7.30;;
2620;SDS011;1320;48.128;11.592;2022-08-05T02:31:59;12.70;;;6.80;;
2620;SDS011;1320;48.128;11.592;2022-08-05T02:34:27;10.50;;;6.37;;
2620;SDS011;1320;48.128;11.592;2022-08-05T02:36:56;13.20;;;6.50;;
2620;SDS011;1320;48.128;11.592;2022-08-05T02:39:25;11.20;;;6.27;;
2620;SDS011;1320;48.128;11.592;2022-08-05T02:41:53;14.03;;;7.07;;
2620;SDS011;1320;48.128;11.592;2022-08-05T02:44:20;12.37;;;7.43;;
2620;SDS011;1320;48.128;11.592;2022-08-05T02:46:48;10.50;;;6.20;;
2620;SDS011;1320;48.128;11.592;2022-08-05T02:49:16;10.20;;;5.63;;
2620;SDS011;1320;48.128;11.592;2022-08-05T02:51:43;10.60;;;5.70;;
2620;SDS011;1320;48.128;11.592;2022-08-05T02:54:09;12.90;;;7.30;;
2620;SDS011;1320;48.128;11.592;2022-08-05T02:56:36;13.20;;;7.17;;
2620;SDS011;1320;48.128;11.592;2022-08-05T02:59:03;10.43;;;6.97;;
2620;SDS011;1320;48.128;11.592;2022-08-05T03:01:30;10.87;;;6.80;;
2620;SDS011;1320;48.128;11.592;2022-08-05T03:04:00;11.23;;;6.43;;
2620;SDS011;1320;48.128;11.592;2022-08-05T03:06:27;10.50;;;6.80;;
2620;SDS011;1320;48.128;11.592;2022-08-05T03:08:54;10.90;;;7.20;;
2620;SDS011;1320;48.128;11.592;2022-08-05T03:11:21;10.53;;;6.07;;
2620;SDS011;1320;48.128;11.592;2022-08-05T03:13:48;10.90;;;5.97;;
2620;SDS011;1320;48.128;11.592;2022-08-05T03:16:15;11.67;;;7.17;;
2620;SDS011;1320;48.128;11.592;2022-08-05T03:18:40;14.57;;;6.90;;
2620;SDS011;1320;48.128;11.592;2022-08-05T03:21:06;10.23;;;6.03;;
2620;SDS011;1320;48.128;11.592;2022-08-05T03:23:33;12.40;;;7.07;;
2620;SDS011;1320;48.128;11.592;2022-08-05T03:26:00;9.77;;;5.90;;
2620;SDS011;1320;48.128;11.592;2022-08-05T03:28:26;11.20;;;6.10;;
2620;SDS011;1320;48.128;11.592;2022-08-05T03:30:53;10.40;;;6.70;;
2620;SDS011;1320;48.128;11.592;2022-08-05T03:33:20;11.47;;;6.60;;
2620;SDS011;1320;48.128;11.592;2022-08-05T03:35:46;11.23;;;5.57;;
2620;SDS011;1320;48.128;11.592;2022-08-05T03:38:13;11.50;;;7.03;;
2620;SDS011;1320;48.128;11.592;2022-08-05T03:40:43;12.47;;;6.70;;
2620;SDS011;1320;48.128;11.592;2022-08-05T03:43:10;9.30;;;5.40;;
2620;SDS011;1320;48.128;11.592;2022-08-05T03:45:36;10.33;;;6.57;;
2620;SDS011;1320;48.128;11.592;2022-08-05T03:48:02;13.33;;;7.40;;
2620;SDS011;1320;48.128;11.592;2022-08-05T03:50:50;10.87;;;6.47;;
2620;SDS011;1320;48.128;11.592;2022-08-05T03:53:28;11.77;;;7.20;;
2620;SDS011;1320;48.128;11.592;2022-08-05T03:56:02;11.30;;;6.80;;
2620;SDS011;1320;48.128;11.592;2022-08-05T03:58:57;10.97;;;7.20;;
2620;SDS011;1320;48.128;11.592;2022-08-05T04:01:26;9.63;;;5.50;;
2620;SDS011;1320;48.128;11.592;2022-08-05T04:03:54;10.73;;;6.57;;
2620;SDS011;1320;48.128;11.592;2022-08-05T04:06:20;10.87;;;7.20;;
2620;SDS011;1320;48.128;11.592;2022-08-05T04:08:46;10.20;;;5.83;;
2620;SDS011;1320;48.128;11.592;2022-08-05T04:11:12;12.60;;;7.27;;
2620;SDS011;1320;48.128;11.592;2022-08-05T04:13:38;11.20;;;6.33;;
2620;SDS011;1320;48.128;11.592;2022-08-05T04:16:06;11.90;;;7.10;;
2620;SDS011;1320;48.128;11.592;2022-08-05T04:18:36;10.50;;;6.73;;
2620;SDS011;1320;48.128;11.592;2022-08-05T04:21:03;10.30;;;5.57;;
2620;SDS011;1320;48.128;11.592;2022-08-05T04:23:29;11.63;;;6.90;;
2620;SDS011;1320;48.128;11.592;2022-08-05T04:25:56;10.83;;;6.30;;
2620;SDS011;1320;48.128;11.592;2022-08-05T04:28:22;11.17;;;6.50;;
2620;SDS011;1320;48.128;11.592;2022-08-05T04:30:48;11.50;;;6.30;;
2620;SDS011;1320;48.128;11.592;2022-08-05T04:33:13;9.90;;;5.93;;
2620;SDS011;1320;48.128;11.592;2022-08-05T04:35:40;10.43;;;6.37;;
2620;SDS011;1320;48.128;11.592;2022-08-05T04:38:07;12.50;;;6.13;;
2620;SDS011;1320;48.128;11.592;2022-08-05T04:40:36;11.00;;;7.40;;
2620;SDS011;1320;48.128;11.592;2022-08-05T04:43:03;10.80;;;6.77;;
2620;SDS011;1320;48.128;11.592;2022-08-05T04:45:29;12.93;;;6.50;;
2620;SDS011;1320;48.128;11.592;2022-08-05T04:50:41;9.50;;;5.83;;
2620;SDS011;1320;48.128;11.592;2022-08-05T04:53:12;10.20;;;5.90;;
2620;SDS011;1320;48.128;11.592;2022-08-05T04:55:42;13.47;;;6.47;;
2620;SDS011;1320;48.128;11.592;2022-08-05T04:58:09;9.90;;;6.07;;
2620;SDS011;1320;48.128;11.592;2022-08-05T05:00:37;9.70;;;5.00;;
2620;SDS011;1320;48.128;11.592;2022-08-05T05:03:03;12.20;;;6.30;;
2620;SDS011;1320;48.128;11.592;2022-08-05T05:05:30;11.63;;;6.77;;
2620;SDS011;1320;48.128;11.592;2022-08-05T05:08:03;9.37;;;5.47;;
2620;SDS011;1320;48.128;11.592;2022-08-05T05:10:41;9.33;;;4.77;;
2620;SDS011;1320;48.128;11.592;2022-08-05T05:13:09;12.27;;;6.53;;
2620;SDS011;1320;48.128;11.592;2022-08-05T05:15:35;11.40;;;5.10;;
2620;SDS011;1320;48.128;11.592;2022-08-05T05:18:02;10.53;;;5.90;;
2620;SDS011;1320;48.128;11.592;2022-08-05T05:20:28;11.00;;;6.60;;
2620;SDS011;1320;48.128;11.592;2022-08-05T05:22:55;11.47;;;5.97;;
2620;SDS011;1320;48.128;11.592;2022-08-05T05:25:21;9.70;;;5.20;;
2620;SDS011;1320;48.128;11.592;2022-08-05T05:27:47;11.00;;;6.13;;
2620;SDS011;1320;48.128;11.592;2022-08-05T05:30:13;11.30;;;6.30;;
2620;SDS011;1320;48.128;11.592;2022-08-05T05:32:39;10.27;;;5.77;;
2620;SDS011;1320;48.128;11.592;2022-08-05T05:35:05;9.97;;;6.60;;
2620;SDS011;1320;48.128;11.592;2022-08-05T05:37:31;10.23;;;5.40;;
2620;SDS011;1320;48.128;11.592;2022-08-05T05:39:56;11.30;;;5.60;;
2620;SDS011;1320;48.128;11.592;2022-08-05T05:42:22;9.27;;;5.73;;
2620;SDS011;1320;48.128;11.592;2022-08-05T05:44:48;9.50;;;5.53;;
2620;SDS011;1320;48.128;11.592;2022-08-05T05:47:13;11.87;;;5.20;;
2620;SDS011;1320;48.128;11.592;2022-08-05T05:49:39;10.57;;;6.27;;
2620;SDS011;1320;48.128;11.592;2022-08-05T05:52:05;8.57;;;5.00;;
2620;SDS011;1320;48.128;11.592;2022-08-05T05:54:30;8.83;;;5.87;;
2620;SDS011;1320;48.128;11.592;2022-08-05T05:56:56;10.47;;;6.30;;
2620;SDS011;1320;48.128;11.592;2022-08-05T05:59:22;9.83;;;6.53;;
2620;SDS011;1320;48.128;11.592;2022-08-05T06:01:48;10.60;;;5.90;;
2620;SDS011;1320;48.128;11.592;2022-08-05T06:04:14;13.27;;;7.43;;
2620;SDS011;1320;48.128;11.592;2022-08-05T06:06:40;12.57;;;8.43;;
2620;SDS011;1320;48.128;11.592;2022-08-05T06:09:06;10.37;;;6.67;;
2620;SDS011;1320;48.128;11.592;2022-08-05T06:11:32;9.33;;;5.73;;
2620;SDS011;1320;48.128;11.592;2022-08-05T06:13:58;10.80;;;5.70;;
2620;SDS011;1320;48.128;11.592;2022-08-05T06:16:24;9.80;;;7.33;;
2620;SDS011;1320;48.128;11.592;2022-08-05T06:18:50;11.20;;;6.30;;
2620;SDS011;1320;48.128;11.592;2022-08-05T06:21:16;9.73;;;5.50;;
2620;SDS011;1320;48.128;11.592;2022-08-05T06:23:42;11.57;;;6.07;;
2620;SDS011;1320;48.128;11.592;2022-08-05T06:26:08;9.53;;;4.80;;
2620;SDS011;1320;48.128;11.592;2022-08-05T06:28:33;9.10;;;6.10;;
2620;SDS011;1320;48.128;11.592;2022-08-05T06:31:00;10.17;;;7.33;;
2620;SDS011;1320;48.128;11.592;2022-08-05T06:33:26;9.60;;;6.07;;
2620;SDS011;1320;48.128;11.592;2022-08-05T06:35:52;11.10;;;6.50;;
2620;SDS011;1320;48.128;11.592;2022-08-05T06:38:18;11.43;;;7.87;;
2620;SDS011;1320;48.128;11.592;2022-08-05T06:40:43;15.87;;;6.50;;
2620;SDS011;1320;48.128;11.592;2022-08-05T06:43:09;10.10;;;6.70;;
2620;SDS011;1320;48.128;11.592;2022-08-05T06:45:35;9.43;;;6.10;;
2620;SDS011;1320;48.128;11.592;2022-08-05T06:48:00;10.97;;;6.80;;
2620;SDS011;1320;48.128;11.592;2022-08-05T06:50:26;11.30;;;5.70;;
2620;SDS011;1320;48.128;11.592;2022-08-05T06:52:52;11.30;;;5.07;;
2620;SDS011;1320;48.128;11.592;2022-08-05T06:55:17;11.40;;;6.50;;
2620;SDS011;1320;48.128;11.592;2022-08-05T06:57:43;11.00;;;6.80;;
2620;SDS011;1320;48.128;11.592;2022-08-05T07:00:09;12.50;;;5.03;;
2620;SDS011;1320;48.128;11.592;2022-08-05T07:02:45;10.03;;;6.67;;
2620;SDS011;1320;48.128;11.592;2022-08-05T07:05:11;10.23;;;5.80;;
2620;SDS011;1320;48.128;11.592;2022-08-05T07:07:38;10.23;;;6.27;;
2620;SDS011;1320;48.128;11.592;2022-08-05T07:10:05;11.90;;;7.10;;
2620;SDS011;1320;48.128;11.592;2022-08-05T07:12:32;11.90;;;6.17;;
2620;SDS011;1320;48.128;11.592;2022-08-05T07:15:16;10.53;;;6.23;;
2620;SDS011;1320;48.128;11.592;2022-08-05T07:18:01;10.23;;;6.40;;
2620;SDS011;1320;48.128;11.592;2022-08-05T07:20:26;11.20;;;7.80;;
2620;SDS011;1320;48.128;11.592;2022-08-05T07:22:52;10.47;;;8.87;;
2620;SDS011;1320;48.128;11.592;2022-08-05T07:25:18;9.83;;;5.87;;
2620;SDS011;1320;48.128;11.592;2022-08-05T07:27:43;12.73;;;8.73;;
2620;SDS011;1320;48.128;11.592;2022-08-05T07:30:09;12.17;;;8.80;;
2620;SDS011;1320;48.128;11.592;2022-08-05T07:32:36;9.50;;;5.27;;
2620;SDS011;1320;48.128;11.592;2022-08-05T07:35:06;10.53;;;8.40;;
2620;SDS011;1320;48.128;11.592;2022-08-05T07:37:35;13.17;;;8.43;;
2620;SDS011;1320;48.128;11.592;2022-08-05T07:40:01;11.77;;;7.13;;
2620;SDS011;1320;48.128;11.592;2022-08-05T07:42:28;9.57;;;5.80;;
2620;SDS011;1320;48.128;11.592;2022-08-05T07:44:53;10.13;;;5.90;;
2620;SDS011;1320;48.128;11.592;2022-08-05T07:47:20;10.10;;;5.90;;
2620;SDS011;1320;48.128;11.592;2022-08-05T07:49:46;9.70;;;6.70;;
2620;SDS011;1320;48.128;11.592;2022-08-05T07:52:11;14.90;;;8.17;;
2620;SDS011;1320;48.128;11.592;2022-08-05T07:54:40;12.17;;;6.43;;
2620;SDS011;1320;48.128;11.592;2022-08-05T07:57:06;10.17;;;6.80;;
2620;SDS011;1320;48.128;11.592;2022-08-05T07:59:34;13.63;;;8.80;;
2620;SDS011;1320;48.128;11.592;2022-08-05T08:02:00;10.17;;;6.17;;
2620;SDS011;1320;48.128;11.592;2022-08-05T08:04:26;10.43;;;5.93;;
2620;SDS011;1320;48.128;11.592;2022-08-05T08:06:52;19.10;;;17.40;;
2620;SDS011;1320;48.128;11.592;2022-08-05T08:09:18;27.47;;;25.47;;
2620;SDS011;1320;48.128;11.592;2022-08-05T08:11:44;14.83;;;10.30;;
2620;SDS011;1320;48.128;11.592;2022-08-05T08:14:10;12.00;;;6.90;;
2620;SDS011;1320;48.128;11.592;2022-08-05T08:16:35;10.73;;;6.70;;
2620;SDS011;1320;48.128;11.592;2022-08-05T08:19:01;10.37;;;7.87;;
2620;SDS011;1320;48.128;11.592;2022-08-05T08:21:27;10.33;;;7.00;;
2620;SDS011;1320;48.128;11.592;2022-08-05T08:23:53;12.30;;;8.60;;
2620;SDS011;1320;48.128;11.592;2022-08-05T08:26:19;11.03;;;8.37;;
2620;SDS011;1320;48.128;11.592;2022-08-05T08:28:45;11.77;;;8.63;;
2620;SDS011;1320;48.128;11.592;2022-08-05T08:31:11;12.67;;;6.63;;
2620;SDS011;1320;48.128;11.592;2022-08-05T08:33:36;15.43;;;7.00;;
2620;SDS011;1320;48.128;11.592;2022-08-05T08:36:02;10.97;;;8.80;;
2620;SDS011;1320;48.128;11.592;2022-08-05T08:38:28;11.97;;;7.90;;
2620;SDS011;1320;48.128;11.592;2022-08-05T08:40:53;13.30;;;8.07;;
2620;SDS011;1320;48.128;11.592;2022-08-05T08:43:19;14.50;;;10.10;;
2620;SDS011;1320;48.128;11.592;2022-08-05T08:45:46;12.40;;;8.40;;
2620;SDS011;1320;48.128;11.592;2022-08-05T08:48:14;10.70;;;7.50;;
2620;SDS011;1320;48.128;11.592;2022-08-05T08:50:43;12.97;;;8.27;;
2620;SDS011;1320;48.128;11.592;2022-08-05T08:53:11;14.83;;;8.20;;
2620;SDS011;1320;48.128;11.592;2022-08-05T08:55:40;11.70;;;8.13;;
2620;SDS011;1320;48.128;11.592;2022-08-05T08:58:06;17.90;;;8.73;;
2620;SDS011;1320;48.128;11.592;2022-08-05T09:00:32;14.70;;;9.93;;
2620;SDS011;1320;48.128;11.592;2022-08-05T09:02:58;11.37;;;8.50;;
2620;SDS011;1320;48.128;11.592;2022-08-05T09:05:25;12.17;;;8.67;;
2620;SDS011;1320;48.128;11.592;2022-08-05T09:07:51;13.20;;;8.77;;
2620;SDS011;1320;48.128;11.592;2022-08-05T09:10:17;12.20;;;8.07;;
2620;SDS011;1320;48.128;11.592;2022-08-05T09:12:43;12.17;;;8.03;;
2620;SDS011;1320;48.128;11.592;2022-08-05T09:15:09;11.23;;;7.27;;
2620;SDS011;1320;48.128;11.592;2022-08-05T09:17:35;12.97;;;8.07;;
2620;SDS011;1320;48.128;11.592;2022-08-05T09:20:02;12.07;;;10.43;;
2620;SDS011;1320;48.128;11.592;2022-08-05T09:22:28;14.90;;;12.00;;
2620;SDS011;1320;48.128;11.592;2022-08-05T09:25:27;10.63;;;7.37;;
2620;SDS011;1320;48.128;11.592;2022-08-05T09:27:52;12.93;;;8.83;;
2620;SDS011;1320;48.128;11.592;2022-08-05T09:30:18;10.83;;;8.40;;
2620;SDS011;1320;48.128;11.592;2022-08-05T09:32:44;14.27;;;8.73;;
2620;SDS011;1320;48.128;11.592;2022-08-05T09:37:37;11.97;;;9.03;;
2620;SDS011;1320;48.128;11.592;2022-08-05T09:43:00;12.43;;;9.00;;
2620;SDS011;1320;48.128;11.592;2022-08-05T09:45:37;13.43;;;8.87;;
2620;SDS011;1320;48.128;11.592;2022-08-05T09:50:59;10.40;;;8.37;;
2620;SDS011;1320;48.128;11.592;2022-08-05T09:53:46;14.27;;;10.60;;
2620;SDS011;1320;48.128;11.592;2022-08-05T09:56:15;16.93;;;10.27;;
2620;SDS011;1320;48.128;11.592;2022-08-05T10:01:24;22.23;;;15.13;;
2620;SDS011;1320;48.128;11.592;2022-08-05T10:03:58;13.47;;;12.03;;
2620;SDS011;1320;48.128;11.592;2022-08-05T10:06:27;12.43;;;11.20;;
2620;SDS011;1320;48.128;11.592;2022-08-05T10:08:53;11.57;;;10.37;;
2620;SDS011;1320;48.128;11.592;2022-08-05T10:11:20;13.13;;;11.43;;
2620;SDS011;1320;48.128;11.592;2022-08-05T10:13:46;12.03;;;10.80;;
2620;SDS011;1320;48.128;11.592;2022-08-05T10:16:32;14.47;;;12.90;;
2620;SDS011;1320;48.128;11.592;2022-08-05T10:18:59;15.13;;;11.37;;
2620;SDS011;1320;48.128;11.592;2022-08-05T10:21:25;15.23;;;12.57;;
2620;SDS011;1320;48.128;11.592;2022-08-05T10:23:51;14.00;;;10.20;;
2620;SDS011;1320;48.128;11.592;2022-08-05T10:26:18;15.13;;;13.73;;
2620;SDS011;1320;48.128;11.592;2022-08-05T10:28:45;14.47;;;13.17;;
2620;SDS011;1320;48.128;11.592;2022-08-05T10:31:11;15.60;;;13.47;;
2620;SDS011;1320;48.128;11.592;2022-08-05T10:33:39;16.63;;;15.23;;
2620;SDS011;1320;48.128;11.592;2022-08-05T10:36:06;13.90;;;12.60;;
2620;SDS011;1320;48.128;11.592;2022-08-05T10:38:32;19.17;;;17.83;;
2620;SDS011;1320;48.128;11.592;2022-08-05T10:43:47;15.90;;;14.40;;
2620;SDS011;1320;48.128;11.592;2022-08-05T10:46:20;16.93;;;15.23;;
2620;SDS011;1320;48.128;11.592;2022-08-05T10:48:47;18.70;;;17.20;;
2620;SDS011;1320;48.128;11.592;2022-08-05T10:51:25;17.30;;;15.50;;
2620;SDS011;1320;48.128;11.592;2022-08-05T10:54:10;16.97;;;15.47;;
2620;SDS011;1320;48.128;11.592;2022-08-05T10:56:46;16.10;;;14.80;;
2620;SDS011;1320;48.128;11.592;2022-08-05T10:59:23;14.20;;;12.97;;
2620;SDS011;1320;48.128;11.592;2022-08-05T11:02:04;16.03;;;14.83;;
2620;SDS011;1320;48.128;11.592;2022-08-05T11:04:32;17.47;;;15.97;;
2620;SDS011;1320;48.128;11.592;2022-08-05T11:07:11;17.07;;;15.57;;
2620;SDS011;1320;48.128;11.592;2022-08-05T11:09:44;16.77;;;15.37;;
2620;SDS011;1320;48.128;11.592;2022-08-05T11:15:08;17.57;;;15.77;;
2620;SDS011;1320;48.128;11.592;2022-08-05T11:17:45;15.57;;;14.17;;
2620;SDS011;1320;48.128;11.592;2022-08-05T11:34:09;15.60;;;14.10;;
2620;SDS011;1320;48.128;11.592;2022-08-05T11:36:19;16.43;;;14.60;;
2620;SDS011;1320;48.128;11.592;2022-08-05T11:39:02;17.30;;;15.97;;
2620;SDS011;1320;48.128;11.592;2022-08-05T11:41:29;18.07;;;16.77;;
2620;SDS011;1320;48.128;11.592;2022-08-05T11:43:59;13.83;;;12.60;;
2620;SDS011;1320;48.128;11.592;2022-08-05T11:49:07;17.30;;;15.13;;
2620;SDS011;1320;48.128;11.592;2022-08-05T11:51:42;17.37;;;15.77;;
2620;SDS011;1320;48.128;11.592;2022-08-05T11:54:12;18.03;;;16.43;;
2620;SDS011;1320;48.128;11.592;2022-08-05T11:59:13;14.80;;;13.40;;
2620;SDS011;1320;48.128;11.592;2022-08-05T12:02:22;13.60;;;12.27;;
2620;SDS011;1320;48.128;11.592;2022-08-05T12:04:43;16.70;;;15.30;;
2620;SDS011;1320;48.128;11.592;2022-08-05T12:07:12;17.13;;;15.73;;
2620;SDS011;1320;48.128;11.592;2022-08-05T12:09:41;16.60;;;15.30;;
2620;SDS011;1320;48.128;11.592;2022-08-05T12:12:11;16.90;;;15.43;;
2620;SDS011;1320;48.128;11.592;2022-08-05T12:14:41;16.70;;;15.37;;
2620;SDS011;1320;48.128;11.592;2022-08-05T12:17:11;16.23;;;14.93;;
2620;SDS011;1320;48.128;11.592;2022-08-05T12:20:11;16.30;;;14.90;;
2620;SDS011;1320;48.128;11.592;2022-08-05T12:22:30;17.00;;;15.60;;
2620;SDS011;1320;48.128;11.592;2022-08-05T12:24:56;17.13;;;15.73;;
2620;SDS011;1320;48.128;11.592;2022-08-05T12:27:25;17.97;;;16.47;;
2620;SDS011;1320;48.128;11.592;2022-08-05T12:30:09;13.53;;;12.40;;
2620;SDS011;1320;48.128;11.592;2022-08-05T12:32:42;16.97;;;15.50;;
2620;SDS011;1320;48.128;11.592;2022-08-05T12:35:10;17.27;;;15.97;;
2620;SDS011;1320;48.128;11.592;2022-08-05T12:37:39;14.60;;;13.37;;
2620;SDS011;1320;48.128;11.592;2022-08-05T12:40:08;14.50;;;13.10;;
2620;SDS011;1320;48.128;11.592;2022-08-05T12:42:35;16.87;;;15.50;;
2620;SDS011;1320;48.128;11.592;2022-08-05T12:45:01;19.23;;;17.43;;
2620;SDS011;1320;48.128;11.592;2022-08-05T12:47:30;15.60;;;14.13;;
2620;SDS011;1320;48.128;11.592;2022-08-05T12:49:56;16.60;;;15.27;;
2620;SDS011;1320;48.128;11.592;2022-08-05T12:52:22;15.50;;;14.17;;
2620;SDS011;1320;48.128;11.592;2022-08-05T12:54:48;16.07;;;14.60;;
2620;SDS011;1320;48.128;11.592;2022-08-05T12:57:15;14.20;;;12.73;;
2620;SDS011;1320;48.128;11.592;2022-08-05T13:02:07;16.63;;;14.47;;
2620;SDS011;1320;48.128;11.592;2022-08-05T13:04:36;14.57;;;13.27;;
2620;SDS011;1320;48.128;11.592;2022-08-05T13:07:11;14.93;;;13.57;;
2620;SDS011;1320;48.128;11.592;2022-08-05T13:09:42;15.90;;;14.47;;
2620;SDS011;1320;48.128;11.592;2022-08-05T13:12:13;13.33;;;12.13;;
2620;SDS011;1320;48.128;11.592;2022-08-05T13:14:44;13.20;;;12.03;;
2620;SDS011;1320;48.128;11.592;2022-08-05T13:22:30;13.67;;;12.27;;
2620;SDS011;1320;48.128;11.592;2022-08-05T13:24:58;16.33;;;15.03;;
2620;SDS011;1320;48.128;11.592;2022-08-05T13:27:29;13.30;;;11.90;;
2620;SDS011;1320;48.128;11.592;2022-08-05T13:29:56;14.67;;;13.47;;
2620;SDS011;1320;48.128;11.592;2022-08-05T13:32:22;16.73;;;15.17;;
2620;SDS011;1320;48.128;11.592;2022-08-05T13:34:49;16.77;;;15.07;;
2620;SDS011;1320;48.128;11.592;2022-08-05T13:37:16;17.73;;;16.17;;
2620;SDS011;1320;48.128;11.592;2022-08-05T13:39:42;18.63;;;17.20;;
2620;SDS011;1320;48.128;11.592;2022-08-05T13:42:08;18.90;;;17.50;;
2620;SDS011;1320;48.128;11.592;2022-08-05T13:44:34;34.03;;;19.87;;
2620;SDS011;1320;48.128;11.592;2022-08-05T13:47:00;19.90;;;18.43;;
2620;SDS011;1320;48.128;11.592;2022-08-05T13:49:26;20.93;;;17.60;;
2620;SDS011;1320;48.128;11.592;2022-08-05T13:51:52;20.70;;;19.00;;
2620;SDS011;1320;48.128;11.592;2022-08-05T13:54:17;15.63;;;14.47;;
2620;SDS011;1320;48.128;11.592;2022-08-05T13:56:44;16.93;;;15.33;;
2620;SDS011;1320;48.128;11.592;2022-08-05T13:59:11;18.50;;;17.00;;
2620;SDS011;1320;48.128;11.592;2022-08-05T14:01:36;17.10;;;15.60;;
2620;SDS011;1320;48.128;11.592;2022-08-05T14:04:02;21.27;;;19.67;;
2620;SDS011;1320;48.128;11.592;2022-08-05T14:06:47;20.57;;;18.87;;
2620;SDS011;1320;48.128;11.592;2022-08-05T14:09:13;21.27;;;19.60;;
2620;SDS011;1320;48.128;11.592;2022-08-05T14:11:38;20.83;;;19.20;;
2620;SDS011;1320;48.128;11.592;2022-08-05T14:14:05;18.50;;;17.17;;
2620;SDS011;1320;48.128;11.592;2022-08-05T14:16:32;18.37;;;16.97;;
2620;SDS011;1320;48.128;11.592;2022-08-05T14:18:58;21.73;;;20.10;;
2620;SDS011;1320;48.128;11.592;2022-08-05T14:21:24;19.90;;;18.30;;
2620;SDS011;1320;48.128;11.592;2022-08-05T14:23:50;19.20;;;17.70;;
2620;SDS011;1320;48.128;11.592;2022-08-05T14:26:16;18.47;;;17.07;;
2620;SDS011;1320;48.128;11.592;2022-08-05T14:28:42;19.87;;;18.47;;
2620;SDS011;1320;48.128;11.592;2022-08-05T14:31:07;20.63;;;18.93;;
2620;SDS011;1320;48.128;11.592;2022-08-05T14:33:33;17.70;;;16.13;;
2620;SDS011;1320;48.128;11.592;2022-08-05T14:35:59;17.10;;;15.70;;
2620;SDS011;1320;48.128;11.592;2022-08-05T14:38:25;16.30;;;15.07;;
2620;SDS011;1320;48.128;11.592;2022-08-05T14:40:51;19.10;;;17.53;;
2620;SDS011;1320;48.128;11.592;2022-08-05T14:43:17;17.80;;;16.20;;
2620;SDS011;1320;48.128;11.592;2022-08-05T14:45:42;15.80;;;14.50;;
2620;SDS011;1320;48.128;11.592;2022-08-05T14:48:08;19.13;;;17.70;;
2620;SDS011;1320;48.128;11.592;2022-08-05T14:50:34;18.30;;;16.87;;
2620;SDS011;1320;48.128;11.592;2022-08-05T14:52:59;21.80;;;20.30;;
2620;SDS011;1320;48.128;11.592;2022-08-05T14:55:26;15.33;;;14.13;;
2620;SDS011;1320;48.128;11.592;2022-08-05T14:57:52;15.90;;;14.70;;
2620;SDS011;1320;48.128;11.592;2022-08-05T15:00:18;19.53;;;18.23;;
2620;SDS011;1320;48.128;11.592;2022-08-05T15:02:45;18.20;;;16.60;;
2620;SDS011;1320;48.128;11.592;2022-08-05T15:05:11;16.57;;;15.37;;
2620;SDS011;1320;48.128;11.592;2022-08-05T15:07:38;17.23;;;15.97;;
2620;SDS011;1320;48.128;11.592;2022-08-05T15:10:04;20.20;;;18.80;;
2620;SDS011;1320;48.128;11.592;2022-08-05T15:12:30;17.93;;;16.23;;
2620;SDS011;1320;48.128;11.592;2022-08-05T15:14:56;18.20;;;16.80;;
2620;SDS011;1320;48.128;11.592;2022-08-05T15:17:23;18.30;;;17.10;;
2620;SDS011;1320;48.128;11.592;2022-08-05T15:19:48;16.17;;;14.90;;
2620;SDS011;1320;48.128;11.592;2022-08-05T15:22:14;18.60;;;17.20;;
2620;SDS011;1320;48.128;11.592;2022-08-05T15:24:40;18.10;;;16.57;;
2620;SDS011;1320;48.128;11.592;2022-08-05T15:27:06;18.40;;;16.93;;
2620;SDS011;1320;48.128;11.592;2022-08-05T15:29:32;17.17;;;15.77;;
2620;SDS011;1320;48.128;11.592;2022-08-05T15:31:57;22.77;;;21.17;;
2620;SDS011;1320;48.128;11.592;2022-08-05T15:34:23;19.70;;;18.43;;
2620;SDS011;1320;48.128;11.592;2022-08-05T15:36:49;22.50;;;21.00;;
2620;SDS011;1320;48.128;11.592;2022-08-05T15:39:14;22.03;;;20.53;;
2620;SDS011;1320;48.128;11.592;2022-08-05T15:41:40;21.47;;;19.97;;
2620;SDS011;1320;48.128;11.592;2022-08-05T15:44:05;16.07;;;14.83;;
2620;SDS011;1320;48.128;11.592;2022-08-05T15:46:31;20.63;;;19.10;;